New Hampton, New Hampshire
Current Conditions -  °F | °C
As of 5:35 PM on Thursday 18 Dec 2014 (Local Time) from KLCI Reporting Station
Overcast Overcast  
Wind Chill: 27°   Ceiling: 2500
Heat Index: 34°   Visibility: 10mi
Dew Point: 25°   Wind: 8mph
Humidity: 70%   Direction: 270°W
Pressure: 29.78"   Gusts: NA
Location:  43.61°N, 71.65°W
Report Text: KLCI 182235Z AUTO 27007KT 10SM BKN025 OVC031 01/M04 A2978 RMK AO1
Loading
Personal Weather Stations






























Interactive Weather Map New forecast layout! Learn more

10-Day Weather Forecast

Advertisements
Track Severe Weather on mobile